Terminal Aerodrome Forecast
Issued by NWS

Home | Current Version | Previous Version | Text Only | Print | Product List | Glossary On
Versions: 1 2 3 4 5 6 7 8 9 10 11 12 13 14 15 16 17 18
379
FTUS41 KPBZ 301039 AAA
TAFHLG
TAF AMD
KHLG 301039Z 3011/3106 00000KT P6SM SKC
     FM301600 05005KT P6SM SCT250=

USA.gov is the U.S. government's official web portal to all federal, state and local government web resources and services.